Time;durP1;ratioP1;P1;durP2;ratioP2;P2;SDS_P1;SDS_P2;PMS_P1;PMS_P2;Temp;Humidity;BMP_temperature;BMP_pressure;BME280_temperature;BME280_humidity;BME280_pressure;Samples;Min_cycle;Max_cycle;Signal;HPM_P1;HPM_P2
2023/12/11 00:00:01;;;;;;;0.85;0.50;;;;;;;10.11;100.00;98466.28;330498;29;4666;-75
2023/12/11 00:00:14;;;;;;;2.40;0.50;;;;;;;10.07;100.00;98464.75;334526;29;4528;-75
2023/12/11 00:00:26;;;;;;;2.30;0.35;;;;;;;10.08;100.00;98466.41;332563;29;17625;-75
2023/12/11 00:00:38;;;;;;;1.45;0.20;;;;;;;10.04;100.00;98464.88;336135;29;4865;-75
2023/12/11 00:00:50;;;;;;;3.50;0.28;;;;;;;10.08;100.00;98458.63;329262;28;5844;-75
2023/12/11 00:01:03;;;;;;;3.03;0.32;;;;;;;10.07;100.00;98456.97;336552;28;4675;-75
2023/12/11 00:01:15;;;;;;;1.80;0.45;;;;;;;10.11;100.00;98468.88;333444;28;17843;-76
2023/12/11 00:01:34;;;;;;;1.00;0.60;;;;;;;10.09;100.00;98455.13;336766;28;5496;-75
2023/12/11 00:01:46;;;;;;;0.75;0.40;;;;;;;10.08;100.00;98471.59;332124;29;17394;-76
2023/12/11 00:01:58;;;;;;;1.52;0.30;;;;;;;10.09;100.00;98468.13;335142;29;4675;-75
2023/12/11 00:02:11;;;;;;;2.70;0.70;;;;;;;10.08;100.00;98466.41;332325;28;18993;-76
2023/12/11 00:02:23;;;;;;;2.40;0.80;;;;;;;10.09;100.00;98468.13;336293;28;4639;-75
2023/12/11 00:02:35;;;;;;;0.88;0.47;;;;;;;10.15;100.00;98468.63;333589;28;4725;-75
2023/12/11 00:02:47;;;;;;;0.80;0.52;;;;;;;10.14;100.00;98468.72;334585;29;4537;-76
2023/12/11 00:02:59;;;;;;;0.70;0.50;;;;;;;10.11;100.00;98466.28;334934;29;4708;-76
2023/12/11 00:03:11;;;;;;;1.02;0.60;;;;;;;10.10;100.00;98459.38;332991;28;17930;-76
2023/12/11 00:03:25;;;;;;;0.73;0.40;;;;;;;10.03;100.00;98458.88;336440;28;4711;-76
2023/12/11 00:03:37;;;;;;;0.80;0.32;;;;;;;10.08;100.00;98472.47;332824;28;18289;-76
2023/12/11 00:03:49;;;;;;;0.95;0.35;;;;;;;10.14;100.00;98455.72;335399;28;5223;-76
2023/12/11 00:04:01;;;;;;;1.08;0.40;;;;;;;10.11;100.00;98461.09;332033;29;18139;-76
2023/12/11 00:04:13;;;;;;;0.80;0.32;;;;;;;10.13;100.00;98459.25;331209;28;4828;-76
2023/12/11 00:04:25;;;;;;;0.70;0.40;;;;;;;10.05;100.00;98461.38;333898;29;18297;-75
2023/12/11 00:04:38;;;;;;;2.00;0.43;;;;;;;10.03;100.00;98464.06;335349;29;5446;-75
2023/12/11 00:04:50;;;;;;;2.00;0.40;;;;;;;10.07;100.00;98468.19;335762;29;5315;-75
2023/12/11 00:05:02;;;;;;;2.33;0.30;;;;;;;10.11;100.00;98461.09;335702;28;18482;-76
2023/12/11 00:05:15;;;;;;;1.10;0.25;;;;;;;10.09;100.00;98460.31;339145;28;4593;-76
2023/12/11 00:05:27;;;;;;;0.30;0.20;;;;;;;10.06;100.00;98465.66;335632;28;18167;-76
2023/12/11 00:05:39;;;;;;;0.40;0.30;;;;;;;10.09;100.00;98471.53;337780;28;4605;-76
2023/12/11 00:05:51;;;;;;;0.50;0.30;;;;;;;10.17;100.00;98461.59;329090;28;17827;-75
2023/12/11 00:06:03;;;;;;;0.47;0.30;;;;;;;10.16;100.00;98459.09;336712;28;5700;-77
2023/12/11 00:06:15;;;;;;;0.43;0.30;;;;;;;10.12;100.00;98458.41;337237;28;5418;-76
2023/12/11 00:06:28;;;;;;;0.70;0.40;;;;;;;10.04;100.00;98457.09;334893;28;18061;-75
2023/12/11 00:06:40;;;;;;;0.90;0.50;;;;;;;10.02;100.00;98456.34;336857;28;7429;-75
2023/12/11 00:06:52;;;;;;;0.63;0.35;;;;;;;10.00;100.00;98459.88;333588;29;13423;-76
2023/12/11 00:07:04;;;;;;;0.60;0.30;;;;;;;10.04;100.00;98454.50;335963;28;4531;-76
2023/12/11 00:07:16;;;;;;;0.47;0.20;;;;;;;9.97;100.00;98453.97;329926;28;4661;-75
2023/12/11 00:07:28;;;;;;;0.68;0.32;;;;;;;10.00;100.00;98459.88;336726;28;5336;-76
2023/12/11 00:07:41;;;;;;;1.10;0.40;;;;;;;9.98;100.00;98456.50;335686;28;7128;-76
2023/12/11 00:07:53;;;;;;;2.00;0.40;;;;;;;9.95;100.00;98461.00;334218;28;19443;-77
2023/12/11 00:08:06;;;;;;;1.60;0.43;;;;;;;9.95;100.00;98461.84;335929;28;4629;-75
2023/12/11 00:08:18;;;;;;;0.47;0.30;;;;;;;10.02;100.00;98451.16;332326;29;18104;-76
2023/12/11 00:08:32;;;;;;;0.32;0.22;;;;;;;10.10;100.00;98459.38;333560;29;4604;-75
2023/12/11 00:08:44;;;;;;;0.90;0.20;;;;;;;10.08;100.00;98458.63;331932;29;18284;-75
2023/12/11 00:08:56;;;;;;;1.08;0.40;;;;;;;10.05;100.00;98458.78;333855;29;4573;-76
2023/12/11 00:09:08;;;;;;;0.43;0.40;;;;;;;9.96;100.00;98458.34;328829;29;5643;-76
2023/12/11 00:09:20;;;;;;;0.50;0.40;;;;;;;9.98;100.00;98461.69;334993;29;4601;-75
2023/12/11 00:09:32;;;;;;;0.50;0.30;;;;;;;9.96;100.00;98460.94;332308;29;12142;-75
2023/12/11 00:09:44;;;;;;;1.50;0.40;;;;;;;9.96;100.00;98452.28;334791;29;5261;-75
2023/12/11 00:09:56;;;;;;;1.30;0.30;;;;;;;9.93;100.00;98453.28;333295;29;5471;-76
2023/12/11 00:10:08;;;;;;;0.82;0.20;;;;;;;9.93;100.00;98458.47;325217;29;17640;-75
2023/12/11 00:10:21;;;;;;;0.90;0.20;;;;;;;9.91;100.00;98460.31;333975;29;4613;-76
2023/12/11 00:10:33;;;;;;;0.90;0.20;;;;;;;9.86;100.00;98457.09;331603;29;18112;-75
2023/12/11 00:10:45;;;;;;;0.40;0.20;;;;;;;9.80;100.00;98460.84;335212;29;5668;-76
2023/12/11 00:10:57;;;;;;;0.80;0.30;;;;;;;9.81;100.00;98453.88;334011;29;5116;-75
2023/12/11 00:11:12;;;;;;;0.60;0.30;;;;;;;9.83;100.00;98452.06;335653;29;5325;-76
2023/12/11 00:11:24;;;;;;;0.30;0.30;;;;;;;9.88;100.00;98452.69;333143;28;16704;-76
2023/12/11 00:11:36;;;;;;;0.40;0.30;;;;;;;9.92;100.00;98451.63;335451;28;4648;-76
2023/12/11 00:11:48;;;;;;;1.23;0.30;;;;;;;9.91;100.00;98449.09;334603;29;5486;-75
2023/12/11 00:12:00;;;;;;;1.35;0.40;;;;;;;9.91;100.00;98455.09;332820;29;17439;-76
2023/12/11 00:12:12;;;;;;;2.65;0.50;;;;;;;9.89;100.00;98453.50;335265;29;5627;-76
2023/12/11 00:12:24;;;;;;;1.80;0.40;;;;;;;9.90;100.00;98453.44;332162;29;11100;-76
2023/12/11 00:12:36;;;;;;;1.20;0.40;;;;;;;9.91;100.00;98449.91;334774;29;5425;-76
2023/12/11 00:12:48;;;;;;;0.90;0.40;;;;;;;9.86;100.00;98456.25;331520;29;11976;-76
2023/12/11 00:13:00;;;;;;;0.57;0.43;;;;;;;9.89;100.00;98451.75;330553;29;4724;-75
2023/12/11 00:13:13;;;;;;;0.47;0.40;;;;;;;9.88;100.00;98457.88;334376;29;4578;-76
2023/12/11 00:13:25;;;;;;;0.30;0.30;;;;;;;9.89;100.00;98450.91;332004;29;17959;-75
2023/12/11 00:13:37;;;;;;;0.30;0.25;;;;;;;9.90;100.00;98453.44;332066;29;4702;-77
2023/12/11 00:13:49;;;;;;;0.30;0.20;;;;;;;9.82;100.00;98455.56;331584;29;17260;-76
2023/12/11 00:14:01;;;;;;;0.17;0.17;;;;;;;9.87;100.00;98453.59;333059;29;5768;-76
2023/12/11 00:14:13;;;;;;;0.20;0.20;;;;;;;9.90;100.00;98448.25;332182;29;13450;-75
2023/12/11 00:14:25;;;;;;;0.20;0.20;;;;;;;9.94;100.00;98449.78;334773;29;4709;-76
2023/12/11 00:14:37;;;;;;;0.17;0.17;;;;;;;10.03;100.00;98452.84;330439;29;5990;-76
2023/12/11 00:14:49;;;;;;;0.20;0.20;;;;;;;10.00;100.00;98457.28;333521;29;13182;-75
2023/12/11 00:15:01;;;;;;;0.40;0.30;;;;;;;10.08;100.00;98456.03;336193;29;5365;-75
2023/12/11 00:15:13;;;;;;;1.17;0.43;;;;;;;10.18;100.00;98441.66;335643;29;5580;-77
2023/12/11 00:15:25;;;;;;;1.08;0.40;;;;;;;10.23;100.00;98465.66;332016;29;17920;-76
2023/12/11 00:15:39;;;;;;;1.13;0.50;;;;;;;10.17;100.00;98450.38;333925;29;5334;-76
2023/12/11 00:15:51;;;;;;;0.43;0.35;;;;;;;10.10;100.00;98459.38;331257;29;18783;-76
2023/12/11 00:16:03;;;;;;;0.38;0.28;;;;;;;10.14;100.00;98458.31;331400;28;4674;-76
2023/12/11 00:16:19;;;;;;;0.30;0.20;;;;;;;10.07;100.00;98459.56;332611;29;18094;-75
2023/12/11 00:16:31;;;;;;;0.30;0.30;;;;;;;10.03;100.00;98458.88;331259;29;17844;-76
2023/12/11 00:16:45;;;;;;;0.20;0.20;;;;;;;10.07;100.00;98454.38;334553;29;4729;-76
2023/12/11 00:16:57;;;;;;;0.20;0.20;;;;;;;9.97;100.00;98460.00;331979;29;17900;-76
2023/12/11 00:17:09;;;;;;;0.68;0.30;;;;;;;9.93;100.00;98458.47;332116;29;13731;-75
2023/12/11 00:17:21;;;;;;;0.73;0.40;;;;;;;9.97;100.00;98465.19;333733;29;5620;-76
2023/12/11 00:17:33;;;;;;;0.55;0.35;;;;;;;9.99;100.00;98457.34;330564;29;4707;-75
2023/12/11 00:17:46;;;;;;;0.60;0.22;;;;;;;10.02;100.00;98454.59;332535;28;17695;-75
2023/12/11 00:17:58;;;;;;;0.90;0.30;;;;;;;10.01;100.00;98458.09;335240;29;5064;-76
2023/12/11 00:18:10;;;;;;;1.00;0.30;;;;;;;10.08;100.00;98471.59;333237;29;4639;-75
2023/12/11 00:18:22;;;;;;;1.08;0.22;;;;;;;10.05;100.00;98461.38;334320;28;19223;-76
2023/12/11 00:18:35;;;;;;;0.57;0.20;;;;;;;10.02;100.00;98461.53;335628;28;4616;-75
2023/12/11 00:18:48;;;;;;;0.30;0.20;;;;;;;9.99;100.00;98462.53;333384;28;18384;-75
2023/12/11 00:19:01;;;;;;;0.20;0.20;;;;;;;9.92;100.00;98456.81;333769;28;11764;-75
2023/12/11 00:19:14;;;;;;;0.30;0.25;;;;;;;9.98;100.00;98461.69;336109;28;4676;-75
2023/12/11 00:19:26;;;;;;;0.32;0.28;;;;;;;10.03;100.00;98468.41;333977;28;17950;-76
2023/12/11 00:19:38;;;;;;;0.30;0.30;;;;;;;10.01;100.00;98473.69;337016;28;4705;-76
2023/12/11 00:19:50;;;;;;;0.30;0.30;;;;;;;10.11;100.00;98455.91;333360;29;13198;-75
2023/12/11 00:20:02;;;;;;;0.10;0.10;;;;;;;10.10;100.00;98468.03;336413;28;4804;-76
2023/12/11 00:20:14;;;;;;;0.50;0.17;;;;;;;10.18;100.00;98457.25;336284;28;5492;-76
2023/12/11 00:20:26;;;;;;;0.57;0.20;;;;;;;10.16;100.00;98459.94;335511;28;18000;-75
2023/12/11 00:20:38;;;;;;;1.27;0.20;;;;;;;10.18;100.00;98458.13;334460;28;17725;-75
2023/12/11 00:20:51;;;;;;;1.20;0.20;;;;;;;10.12;100.00;98465.34;337071;28;4568;-75
2023/12/11 00:21:03;;;;;;;1.42;0.25;;;;;;;10.13;100.00;98456.66;334387;28;17723;-76
2023/12/11 00:21:16;;;;;;;0.50;0.20;;;;;;;10.21;100.00;98457.09;336993;28;4723;-75
2023/12/11 00:21:27;;;;;;;0.10;0.10;;;;;;;10.29;100.00;98452.38;333969;28;18870;-76
2023/12/11 00:21:40;;;;;;;0.30;0.10;;;;;;;10.29;100.00;98467.94;335295;28;4793;-75
2023/12/11 00:21:53;;;;;;;0.40;0.20;;;;;;;10.32;100.00;98461.78;329256;28;17780;-75
2023/12/11 00:22:05;;;;;;;0.17;0.17;;;;;;;10.35;100.00;98454.69;335763;28;4726;-76
2023/12/11 00:22:18;;;;;;;0.20;0.20;;;;;;;10.29;100.00;98462.75;332995;28;17881;-75
2023/12/11 00:22:30;;;;;;;0.10;0.10;;;;;;;10.34;100.00;98463.41;335444;28;4715;-77
2023/12/11 00:22:42;;;;;;;0.10;0.10;;;;;;;10.30;100.00;98459.28;332794;28;17004;-76
2023/12/11 00:22:54;;;;;;;0.10;0.10;;;;;;;10.30;100.00;98461.88;334787;28;4762;-75
2023/12/11 00:23:06;;;;;;;0.10;0.10;;;;;;;10.31;100.00;98463.56;335469;28;4782;-76
2023/12/11 00:23:18;;;;;;;0.20;0.20;;;;;;;10.37;100.00;98458.03;332918;28;18198;-76
2023/12/11 00:23:30;;;;;;;0.30;0.30;;;;;;;10.36;100.00;98466.78;336209;28;4556;-75
2023/12/11 00:23:42;;;;;;;0.30;0.30;;;;;;;10.34;100.00;98466.00;333160;28;16769;-77
2023/12/11 00:23:54;;;;;;;0.55;0.28;;;;;;;10.37;100.00;98463.25;334328;28;4594;-75
2023/12/11 00:24:07;;;;;;;0.50;0.20;;;;;;;10.30;100.00;98461.88;335753;28;5308;-75
2023/12/11 00:24:19;;;;;;;0.10;0.10;;;;;;;10.36;100.00;98471.97;332444;28;17877;-75
2023/12/11 00:24:31;;;;;;;0.10;0.10;;;;;;;10.34;100.00;98465.13;330821;28;5244;-75
2023/12/11 00:24:43;;;;;;;0.20;0.20;;;;;;;10.28;100.00;98463.69;333355;28;18282;-75
2023/12/11 00:24:55;;;;;;;0.20;0.20;;;;;;;10.29;100.00;98470.53;335621;28;5588;-75
2023/12/11 00:25:08;;;;;;;0.10;0.10;;;;;;;10.30;100.00;98459.28;332929;28;18092;-75
2023/12/11 00:25:20;;;;;;;0.10;0.10;;;;;;;10.33;100.00;98460.88;334999;28;5121;-76
2023/12/11 00:25:32;;;;;;;0.40;0.17;;;;;;;10.32;100.00;98465.25;335068;29;5767;-76
2023/12/11 00:25:47;;;;;;;0.90;0.22;;;;;;;10.30;100.00;98459.28;333702;28;17900;-75
2023/12/11 00:25:59;;;;;;;1.27;0.22;;;;;;;10.31;100.00;98460.94;332180;28;10578;-75
2023/12/11 00:26:11;;;;;;;1.10;0.22;;;;;;;10.25;100.00;98466.44;331556;28;4593;-76
2023/12/11 00:26:23;;;;;;;0.70;0.20;;;;;;;10.34;100.00;98463.41;332569;29;14355;-76
2023/12/11 00:26:36;;;;;;;0.52;0.15;;;;;;;10.34;100.00;98458.22;335981;28;4544;-76
2023/12/11 00:26:48;;;;;;;0.50;0.20;;;;;;;10.36;100.00;98471.97;333941;28;5527;-75
2023/12/11 00:27:00;;;;;;;0.10;0.10;;;;;;;10.35;100.00;98475.47;334708;29;17756;-76
2023/12/11 00:27:12;;;;;;;0.17;0.17;;;;;;;10.34;100.00;98462.53;335974;29;4937;-76
2023/12/11 00:27:24;;;;;;;0.20;0.20;;;;;;;10.27;100.00;98469.78;327927;29;4744;-75
2023/12/11 00:27:36;;;;;;;0.13;0.10;;;;;;;10.24;100.00;98469.97;334459;29;5786;-76
2023/12/11 00:27:48;;;;;;;0.13;0.13;;;;;;;10.25;100.00;98463.81;331672;29;14409;-75
2023/12/11 00:28:00;;;;;;;0.30;0.20;;;;;;;10.25;100.00;98470.78;334346;29;4707;-75
2023/12/11 00:28:13;;;;;;;0.40;0.30;;;;;;;10.30;100.00;98461.88;333642;29;5677;-75
2023/12/11 00:28:25;;;;;;;0.50;0.43;;;;;;;10.30;100.00;98467.09;331206;29;17952;-75
2023/12/11 00:28:37;;;;;;;0.47;0.40;;;;;;;10.29;100.00;98464.53;332827;29;5285;-76
2023/12/11 00:28:49;;;;;;;0.40;0.30;;;;;;;10.28;100.00;98468.88;333950;29;5735;-75
2023/12/11 00:29:01;;;;;;;0.32;0.20;;;;;;;10.29;100.00;98467.94;326743;29;17213;-76
2023/12/11 00:29:14;;;;;;;0.20;0.20;;;;;;;10.34;100.00;98472.94;333246;29;4554;-75
2023/12/11 00:29:26;;;;;;;0.20;0.10;;;;;;;10.33;100.00;98477.28;330304;29;18871;-76
2023/12/11 00:29:38;;;;;;;0.22;0.20;;;;;;;10.41;100.00;98468.28;333698;29;5692;-76
2023/12/11 00:29:50;;;;;;;0.30;0.20;;;;;;;10.38;100.00;98464.94;330987;29;17826;-76
2023/12/11 00:30:04;;;;;;;0.20;0.10;;;;;;;10.39;100.00;98464.00;334867;29;4699;-75
2023/12/11 00:30:16;;;;;;;0.38;0.20;;;;;;;10.41;100.00;98473.50;330949;29;18173;-75
2023/12/11 00:30:28;;;;;;;0.50;0.20;;;;;;;10.44;100.00;98468.94;329090;29;5541;-75
2023/12/11 00:30:40;;;;;;;0.55;0.20;;;;;;;10.49;100.00;98466.13;331696;29;18294;-76
2023/12/11 00:30:52;;;;;;;0.20;0.20;;;;;;;10.51;100.00;98466.91;334870;29;4708;-76
2023/12/11 00:31:07;;;;;;;0.15;0.15;;;;;;;10.46;100.00;98467.13;331587;29;18221;-75
2023/12/11 00:31:24;;;;;;;0.90;0.10;;;;;;;10.46;100.00;98467.13;333578;29;18757;-75
2023/12/11 00:31:36;;;;;;;1.00;0.20;;;;;;;10.46;100.00;98461.91;331862;29;17563;-76
2023/12/11 00:31:48;;;;;;;0.22;0.20;;;;;;;10.42;100.00;98464.75;329100;29;5942;-76
2023/12/11 00:32:00;;;;;;;0.13;0.10;;;;;;;10.48;100.00;98464.44;330724;29;18511;-76
2023/12/11 00:32:12;;;;;;;0.20;0.10;;;;;;;10.46;100.00;98461.91;333054;29;5856;-76
2023/12/11 00:32:24;;;;;;;0.30;0.13;;;;;;;10.39;100.00;98466.59;331799;29;13091;-75
2023/12/11 00:32:36;;;;;;;0.30;0.20;;;;;;;10.35;100.00;98470.28;330709;29;18384;-76
2023/12/11 00:32:48;;;;;;;0.20;0.20;;;;;;;10.44;100.00;98468.94;332648;29;4585;-76
2023/12/11 00:33:00;;;;;;;0.20;0.20;;;;;;;10.33;100.00;98476.47;331086;28;18416;-75
2023/12/11 00:33:12;;;;;;;0.10;0.10;;;;;;;10.37;100.00;98465.84;335929;28;4690;-76
2023/12/11 00:33:24;;;;;;;0.40;0.20;;;;;;;10.32;100.00;98459.19;331314;29;4639;-76
2023/12/11 00:33:36;;;;;;;0.30;0.10;;;;;;;10.36;100.00;98466.78;332041;29;17853;-76
2023/12/11 00:33:48;;;;;;;0.00;0.00;;;;;;;10.39;100.00;98477.00;335182;29;4545;-76
2023/12/11 00:34:01;;;;;;;0.10;0.10;;;;;;;10.37;100.00;98468.44;333850;28;17758;-75
2023/12/11 00:34:13;;;;;;;0.30;0.20;;;;;;;10.39;100.00;98471.78;336931;28;4532;-75
2023/12/11 00:34:25;;;;;;;0.80;0.20;;;;;;;10.35;100.00;98465.06;334844;28;10252;-75
2023/12/11 00:34:37;;;;;;;0.70;0.20;;;;;;;10.35;100.00;98472.88;331855;28;4750;-76
2023/12/11 00:34:49;;;;;;;0.32;0.10;;;;;;;10.46;100.00;98456.72;337143;28;4758;-76
2023/12/11 00:35:02;;;;;;;0.10;0.10;;;;;;;10.46;100.00;98476.66;335512;28;18129;-76
2023/12/11 00:35:14;;;;;;;0.10;0.10;;;;;;;10.43;100.00;98466.47;336798;28;5151;-76
2023/12/11 00:35:26;;;;;;;0.17;0.10;;;;;;;10.44;100.00;98452.53;333505;28;17808;-76
2023/12/11 00:35:38;;;;;;;0.20;0.17;;;;;;;10.46;100.00;98466.28;335922;28;5475;-76
2023/12/11 00:35:50;;;;;;;0.20;0.20;;;;;;;10.54;100.00;98461.53;332494;28;18350;-75
2023/12/11 00:36:03;;;;;;;0.60;0.20;;;;;;;10.55;100.00;98460.63;336287;28;5050;-75
2023/12/11 00:36:15;;;;;;;0.60;0.17;;;;;;;10.55;100.00;98458.03;332133;28;4747;-75
2023/12/11 00:36:27;;;;;;;0.40;0.20;;;;;;;10.53;100.00;98470.25;335006;28;4585;-76
2023/12/11 00:36:39;;;;;;;0.10;0.10;;;;;;;10.53;100.00;98467.66;336366;28;4532;-75
2023/12/11 00:36:51;;;;;;;0.10;0.10;;;;;;;10.54;100.00;98464.13;333316;28;13938;-75
2023/12/11 00:37:03;;;;;;;0.10;0.10;;;;;;;10.52;100.00;98461.63;336723;28;4637;-76
2023/12/11 00:37:17;;;;;;;0.28;0.20;;;;;;;10.46;100.00;98472.31;336209;28;4563;-76
2023/12/11 00:37:29;;;;;;;0.50;0.20;;;;;;;10.38;100.00;98477.06;334910;28;18897;-76
2023/12/11 00:37:41;;;;;;;0.57;0.20;;;;;;;10.46;100.00;98471.47;333580;28;18025;-75
2023/12/11 00:37:53;;;;;;;0.80;0.20;;;;;;;10.42;100.00;98472.56;336689;28;4541;-76
2023/12/11 00:38:06;;;;;;;0.80;0.20;;;;;;;10.42;100.00;98469.97;334140;28;18101;-76
2023/12/11 00:38:18;;;;;;;0.30;0.10;;;;;;;10.45;100.00;98472.41;336303;28;5101;-76
2023/12/11 00:38:31;;;;;;;0.28;0.10;;;;;;;10.48;100.00;98474.84;336872;28;5620;-76
2023/12/11 00:38:43;;;;;;;0.47;0.17;;;;;;;10.59;100.00;98468.19;333749;28;17721;-76
2023/12/11 00:38:55;;;;;;;0.60;0.30;;;;;;;10.61;100.00;98481.09;337900;28;4661;-76
2023/12/11 00:39:07;;;;;;;0.52;0.30;;;;;;;10.62;100.00;98466.34;333836;29;13181;-75
2023/12/11 00:39:19;;;;;;;0.30;0.30;;;;;;;10.63;100.00;98468.88;333832;29;17967;-75
2023/12/11 00:39:31;;;;;;;0.20;0.20;;;;;;;10.63;100.00;98479.25;336159;29;5321;-75
2023/12/11 00:39:43;;;;;;;0.10;0.10;;;;;;;10.52;100.00;98477.22;332847;29;17928;-76
2023/12/11 00:39:55;;;;;;;0.10;0.10;;;;;;;10.57;100.00;98475.22;335476;29;5732;-75
2023/12/11 00:40:08;;;;;;;0.10;0.10;;;;;;;10.56;100.00;98477.88;333092;29;13382;-75
2023/12/11 00:40:20;;;;;;;0.10;0.10;;;;;;;10.53;100.00;98480.66;334910;29;4633;-75
2023/12/11 00:40:32;;;;;;;0.10;0.10;;;;;;;10.54;100.00;98474.53;332203;28;5145;-75
2023/12/11 00:40:45;;;;;;;0.10;0.10;;;;;;;10.57;100.00;98480.41;335859;29;4600;-76
2023/12/11 00:40:57;;;;;;;0.10;0.10;;;;;;;10.57;100.00;98477.81;332864;29;12734;-75
2023/12/11 00:41:09;;;;;;;0.10;0.10;;;;;;;10.57;100.00;98474.38;334774;28;4544;-76
2023/12/11 00:41:21;;;;;;;0.10;0.10;;;;;;;10.58;100.00;98470.84;335654;28;4707;-76
2023/12/11 00:41:33;;;;;;;0.10;0.10;;;;;;;10.68;100.00;98472.03;332955;28;18168;-75
2023/12/11 00:41:45;;;;;;;0.10;0.10;;;;;;;10.64;100.00;98475.72;335548;29;5459;-76
2023/12/11 00:41:57;;;;;;;0.28;0.20;;;;;;;10.64;100.00;98480.91;335317;29;5302;-76
2023/12/11 00:42:09;;;;;;;0.30;0.20;;;;;;;10.70;100.00;98475.41;328463;29;17643;-76
2023/12/11 00:42:21;;;;;;;0.25;0.20;;;;;;;10.71;100.00;98484.91;335640;29;4645;-76
2023/12/11 00:42:33;;;;;;;1.10;0.25;;;;;;;10.65;100.00;98485.22;333396;28;18996;-77
2023/12/11 00:42:46;;;;;;;1.10;0.22;;;;;;;10.66;100.00;98479.09;336005;29;5648;-75
2023/12/11 00:42:58;;;;;;;1.10;0.20;;;;;;;10.62;100.00;98487.97;336978;28;5550;-75
2023/12/11 00:43:10;;;;;;;0.30;0.30;;;;;;;10.68;100.00;98477.25;334574;28;18175;-76
2023/12/11 00:43:22;;;;;;;0.47;0.47;;;;;;;10.64;100.00;98480.91;333879;29;5257;-75
2023/12/11 00:43:34;;;;;;;0.60;0.45;;;;;;;10.66;100.00;98484.28;327177;29;5269;-76
2023/12/11 00:43:57;;;;;;;1.20;0.70;;;;;;;10.55;100.00;98477.03;331618;28;17072;-75
2023/12/11 00:44:09;;;;;;;0.90;0.70;;;;;;;10.55;100.00;98486.59;331341;29;18428;-75
2023/12/11 00:44:21;;;;;;;0.95;0.30;;;;;;;10.54;100.00;98484.91;334821;29;4577;-75
2023/12/11 00:44:37;;;;;;;1.70;0.30;;;;;;;10.67;100.00;98480.78;332688;29;4708;-75
2023/12/11 00:44:49;;;;;;;1.92;0.20;;;;;;;10.67;100.00;98472.97;331717;29;17751;-75
2023/12/11 00:45:01;;;;;;;1.30;0.20;;;;;;;10.75;100.00;98478.63;329787;29;4597;-76
2023/12/11 00:45:13;;;;;;;0.30;0.10;;;;;;;10.80;100.00;98475.78;334462;28;5144;-76
2023/12/11 00:45:25;;;;;;;0.45;0.20;;;;;;;10.79;100.00;98474.94;332245;28;17952;-76
2023/12/11 00:45:37;;;;;;;0.43;0.22;;;;;;;10.69;100.00;98478.09;334819;28;5154;-75
2023/12/11 00:45:49;;;;;;;0.45;0.30;;;;;;;10.69;100.00;98489.34;332295;28;17920;-76
2023/12/11 00:46:02;;;;;;;0.22;0.20;;;;;;;10.63;100.00;98478.44;335984;28;4680;-76
2023/12/11 00:46:14;;;;;;;0.20;0.20;;;;;;;10.62;100.00;98482.75;335319;28;5374;-76
2023/12/11 00:46:26;;;;;;;0.40;0.20;;;;;;;10.62;100.00;98480.16;332223;28;17791;-77
2023/12/11 00:46:39;;;;;;;0.20;0.10;;;;;;;10.64;100.00;98480.91;331330;28;4602;-76
2023/12/11 00:46:51;;;;;;;0.47;0.20;;;;;;;10.67;100.00;98487.75;333292;28;17997;-75
2023/12/11 00:47:04;;;;;;;0.50;0.20;;;;;;;10.66;100.00;98481.69;337303;28;4657;-75
2023/12/11 00:47:16;;;;;;;0.52;0.20;;;;;;;10.65;100.00;98490.41;333039;28;18189;-75
2023/12/11 00:47:28;;;;;;;0.20;0.13;;;;;;;10.59;100.00;98486.38;335556;28;5379;-76
2023/12/11 00:47:40;;;;;;;0.20;0.10;;;;;;;10.68;100.00;98477.25;332704;28;17359;-75
2023/12/11 00:47:52;;;;;;;0.30;0.30;;;;;;;10.73;100.00;98480.47;335502;28;4707;-76
2023/12/11 00:48:05;;;;;;;0.30;0.30;;;;;;;10.66;100.00;98484.28;333114;28;4661;-77
2023/12/11 00:48:18;;;;;;;0.20;0.20;;;;;;;10.64;100.00;98480.91;333169;28;18297;-75
2023/12/11 00:48:30;;;;;;;0.20;0.20;;;;;;;10.66;100.00;98481.69;334040;28;12823;-76
2023/12/11 00:48:42;;;;;;;0.40;0.22;;;;;;;10.69;100.00;98484.13;332841;29;16906;-76
2023/12/11 00:48:54;;;;;;;0.30;0.30;;;;;;;10.69;100.00;98484.13;333556;28;7109;-76
2023/12/11 00:49:07;;;;;;;0.30;0.30;;;;;;;10.70;100.00;98484.97;332257;29;14928;-76
2023/12/11 00:49:19;;;;;;;0.30;0.30;;;;;;;10.68;100.00;98481.59;335287;29;5797;-75
2023/12/11 00:49:31;;;;;;;0.25;0.25;;;;;;;10.63;100.00;98479.25;331125;29;15997;-76
2023/12/11 00:49:44;;;;;;;0.28;0.28;;;;;;;10.61;100.00;98485.47;330105;29;15564;-75
2023/12/11 00:49:56;;;;;;;0.20;0.20;;;;;;;10.57;100.00;98487.38;326724;29;4689;-75
2023/12/11 00:50:08;;;;;;;0.13;0.10;;;;;;;10.52;100.00;98485.00;334120;29;4610;-75
2023/12/11 00:50:20;;;;;;;0.10;0.05;;;;;;;10.51;100.00;98487.69;334923;29;5858;-75
2023/12/11 00:50:33;;;;;;;0.20;0.20;;;;;;;10.60;100.00;98495.00;331476;29;18392;-76
2023/12/11 00:50:45;;;;;;;0.20;0.20;;;;;;;10.56;100.00;98489.13;334344;29;4710;-76
2023/12/11 00:50:57;;;;;;;0.20;0.20;;;;;;;10.54;100.00;98490.09;331198;29;18087;-75
2023/12/11 00:51:20;;;;;;;0.50;0.20;;;;;;;10.58;100.00;98497.69;328196;29;5796;-76
2023/12/11 00:51:32;;;;;;;1.20;0.20;;;;;;;10.56;100.00;98488.28;332770;28;14977;-75
2023/12/11 00:51:46;;;;;;;0.90;0.10;;;;;;;10.57;100.00;98488.19;335803;28;6831;-75
2023/12/11 00:51:58;;;;;;;0.10;0.10;;;;;;;10.65;100.00;98485.22;333176;28;5548;-76
2023/12/11 00:52:10;;;;;;;0.30;0.10;;;;;;;10.66;100.00;98489.47;335711;28;5082;-75
2023/12/11 00:52:22;;;;;;;0.75;0.35;;;;;;;10.71;100.00;98482.31;334076;28;13773;-75
2023/12/11 00:52:34;;;;;;;0.80;0.47;;;;;;;10.74;100.00;98487.31;330833;28;4901;-76
2023/12/11 00:52:46;;;;;;;0.70;0.40;;;;;;;10.73;100.00;98490.03;336250;28;4569;-76
2023/12/11 00:52:58;;;;;;;0.57;0.22;;;;;;;10.73;100.00;98485.66;333167;28;18249;-75
2023/12/11 00:53:10;;;;;;;1.00;0.30;;;;;;;10.70;100.00;98490.16;335479;29;5358;-75
2023/12/11 00:53:22;;;;;;;0.68;0.20;;;;;;;10.68;100.00;98495.44;333654;28;11458;-75
2023/12/11 00:53:34;;;;;;;0.30;0.30;;;;;;;10.68;100.00;98494.59;335551;28;4604;-77
2023/12/11 00:53:47;;;;;;;0.30;0.30;;;;;;;10.69;100.00;98494.53;335755;29;5118;-76
2023/12/11 00:53:59;;;;;;;0.20;0.20;;;;;;;10.72;100.00;98489.16;332765;29;18573;-76
2023/12/11 00:54:11;;;;;;;0.10;0.10;;;;;;;10.75;100.00;98486.41;334938;29;4739;-76
2023/12/11 00:54:23;;;;;;;0.17;0.17;;;;;;;10.79;100.00;98493.13;332122;29;16244;-75
2023/12/11 00:54:35;;;;;;;0.20;0.20;;;;;;;10.75;100.00;98499.41;334725;29;4959;-75
2023/12/11 00:54:47;;;;;;;0.20;0.20;;;;;;;10.76;100.00;98495.88;334853;29;5922;-76
2023/12/11 00:54:59;;;;;;;0.20;0.20;;;;;;;10.74;100.00;98482.13;332897;28;17995;-77
2023/12/11 00:55:12;;;;;;;0.20;0.20;;;;;;;10.70;100.00;98495.38;336710;28;4764;-77
2023/12/11 00:55:24;;;;;;;0.60;0.20;;;;;;;10.63;100.00;98494.03;331800;28;18413;-75
2023/12/11 00:55:36;;;;;;;0.60;0.20;;;;;;;10.63;100.00;98494.84;334510;28;17936;-76
2023/12/11 00:55:48;;;;;;;0.40;0.10;;;;;;;10.59;100.00;98488.13;337214;28;5271;-75
2023/12/11 00:56:00;;;;;;;0.13;0.13;;;;;;;10.53;100.00;98488.44;333875;28;18144;-76
2023/12/11 00:56:12;;;;;;;0.45;0.22;;;;;;;10.54;100.00;98500.50;337037;28;5473;-76
2023/12/11 00:56:24;;;;;;;0.85;0.30;;;;;;;10.60;100.00;98495.00;334228;28;18199;-76
2023/12/11 00:56:36;;;;;;;0.70;0.20;;;;;;;10.65;100.00;98503.41;336414;28;5316;-75
2023/12/11 00:56:48;;;;;;;0.50;0.10;;;;;;;10.69;100.00;98499.72;336459;28;12544;-75
2023/12/11 00:57:00;;;;;;;0.60;0.30;;;;;;;10.79;100.00;98495.72;329614;28;18249;-75
2023/12/11 00:57:12;;;;;;;1.30;0.25;;;;;;;10.76;100.00;98501.06;336666;28;5256;-77
2023/12/11 00:57:24;;;;;;;1.25;0.28;;;;;;;10.78;100.00;98488.00;334394;28;13266;-76
2023/12/11 00:57:36;;;;;;;0.40;0.20;;;;;;;10.80;100.00;98486.16;336673;28;4599;-76
2023/12/11 00:57:48;;;;;;;0.17;0.17;;;;;;;10.85;100.00;98493.75;337061;28;4701;-75
2023/12/11 00:58:00;;;;;;;0.15;0.15;;;;;;;10.81;100.00;98487.03;334347;28;16429;-75
2023/12/11 00:58:12;;;;;;;0.20;0.20;;;;;;;10.83;100.00;98490.38;337223;28;5049;-75
2023/12/11 00:58:24;;;;;;;0.20;0.20;;;;;;;10.90;100.00;98486.53;334356;28;18140;-75
2023/12/11 00:58:36;;;;;;;0.20;0.20;;;;;;;10.86;100.00;98485.00;336870;28;4659;-76